Time;durP1;ratioP1;P1;durP2;ratioP2;P2;SDS_P1;SDS_P2;PMS_P1;PMS_P2;Temp;Humidity;BMP_temperature;BMP_pressure;BME280_temperature;BME280_humidity;BME280_pressure;Samples;Min_cycle;Max_cycle;Signal;HPM_P1;HPM_P2
2023/04/16 00:00:32;;;;;;;15.55;8.70;;;;;;;7.36;100.00;98698.97;4991363;28;20111;-79
2023/04/16 00:02:57;;;;;;;13.70;8.35;;;;;;;7.59;100.00;98716.84;5012221;28;20034;-79
2023/04/16 00:05:23;;;;;;;13.13;8.50;;;;;;;7.52;100.00;98713.22;4991772;28;20025;-80
2023/04/16 00:07:50;;;;;;;15.45;8.57;;;;;;;7.59;100.00;98720.38;4988300;28;20571;-84
2023/04/16 00:10:15;;;;;;;13.48;8.00;;;;;;;7.32;100.00;98686.06;5014558;28;20021;-80
2023/04/16 00:12:41;;;;;;;15.23;9.10;;;;;;;7.48;100.00;98715.47;4995860;28;20072;-81
2023/04/16 00:15:06;;;;;;;14.75;8.88;;;;;;;7.49;100.00;98727.06;4996376;28;20022;-81
2023/04/16 00:17:32;;;;;;;14.25;8.60;;;;;;;7.56;100.00;98723.44;5015143;28;20036;-79
2023/04/16 00:19:57;;;;;;;17.02;9.35;;;;;;;7.41;100.00;98699.25;5015443;28;20088;-78
2023/04/16 00:22:22;;;;;;;16.90;9.90;;;;;;;7.58;100.00;98723.28;4995852;28;20018;-79
2023/04/16 00:24:47;;;;;;;15.05;8.98;;;;;;;7.51;100.00;98720.47;5011752;28;20044;-79
2023/04/16 00:27:13;;;;;;;14.18;8.23;;;;;;;7.58;100.00;98721.41;4991300;28;20087;-80
2023/04/16 00:29:38;;;;;;;14.52;8.60;;;;;;;7.39;100.00;98687.81;5011644;28;20506;-79
2023/04/16 00:32:04;;;;;;;10.93;7.35;;;;;;;7.42;100.00;98686.63;4992262;28;20480;-79
2023/04/16 00:34:29;;;;;;;14.32;7.80;;;;;;;7.40;100.00;98702.09;5015471;28;20064;-79
2023/04/16 00:36:55;;;;;;;15.25;8.43;;;;;;;7.31;100.00;98687.91;5000994;28;20053;-78
2023/04/16 00:39:20;;;;;;;13.63;8.05;;;;;;;7.47;100.00;98716.50;5014828;28;20018;-79
2023/04/16 00:41:45;;;;;;;14.15;8.35;;;;;;;7.56;100.00;98731.53;4997654;28;20096;-79
2023/04/16 00:44:11;;;;;;;11.85;7.55;;;;;;;7.46;100.00;98720.19;4994999;28;20022;-79
2023/04/16 00:46:37;;;;;;;12.45;7.85;;;;;;;7.30;100.00;98694.31;4991244;28;20030;-78
2023/04/16 00:49:02;;;;;;;13.18;7.88;;;;;;;7.41;100.00;98707.31;4993766;28;20117;-78
2023/04/16 00:51:28;;;;;;;12.25;6.90;;;;;;;7.44;100.00;98717.72;5014178;28;20122;-79
2023/04/16 00:53:53;;;;;;;12.68;7.57;;;;;;;7.39;100.00;98717.44;5014678;28;20029;-79
2023/04/16 00:56:20;;;;;;;12.52;7.38;;;;;;;7.35;100.00;98699.97;5011769;28;20022;-78
2023/04/16 00:58:45;;;;;;;13.65;7.28;;;;;;;7.39;100.00;98713.91;5013294;28;20037;-78
2023/04/16 01:01:10;;;;;;;11.55;7.38;;;;;;;7.51;100.00;98725.03;5011325;28;20392;-80
2023/04/16 01:03:43;;;;;;;11.50;7.20;;;;;;;7.34;100.00;98706.38;4996169;28;20072;-79
2023/04/16 01:06:08;;;;;;;12.77;7.53;;;;;;;7.32;100.00;98702.19;4995661;28;20025;-79
2023/04/16 01:08:34;;;;;;;12.10;7.28;;;;;;;7.52;100.00;98729.38;4988656;28;20029;-79
2023/04/16 01:10:59;;;;;;;10.48;6.72;;;;;;;7.40;100.00;98707.50;5026596;28;20491;-79
2023/04/16 01:13:25;;;;;;;10.70;6.50;;;;;;;7.49;100.00;98706.34;4994059;28;20022;-79
2023/04/16 01:15:51;;;;;;;10.18;6.13;;;;;;;7.44;100.00;98711.47;4991770;28;20034;-82
2023/04/16 01:18:18;;;;;;;9.77;5.75;;;;;;;7.58;100.00;98734.88;5007219;28;20022;-77
2023/04/16 01:20:44;;;;;;;10.60;6.60;;;;;;;7.57;100.00;98733.22;5011188;28;20050;-78
2023/04/16 01:23:10;;;;;;;10.70;6.72;;;;;;;7.41;100.00;98709.16;4996700;28;20029;-77
2023/04/16 01:25:36;;;;;;;9.25;5.80;;;;;;;7.52;100.00;98732.06;5009788;28;20022;-78
2023/04/16 01:28:01;;;;;;;9.95;6.65;;;;;;;7.56;100.00;98731.53;5010820;28;20026;-77
2023/04/16 01:30:27;;;;;;;12.50;5.93;;;;;;;7.59;100.00;98738.41;5013300;28;20044;-77
2023/04/16 01:32:52;;;;;;;10.20;5.60;;;;;;;7.63;100.00;98732.47;4994202;28;20696;-77
2023/04/16 01:35:17;;;;;;;9.20;5.70;;;;;;;7.48;100.00;98720.84;5014160;28;20022;-77
2023/04/16 01:37:43;;;;;;;9.63;5.72;;;;;;;7.50;100.00;98726.91;4988038;28;20064;-77
2023/04/16 01:40:09;;;;;;;7.75;5.43;;;;;;;7.50;100.00;98732.28;5014132;28;20034;-77
2023/04/16 01:42:34;;;;;;;7.97;5.50;;;;;;;7.46;100.00;98715.66;4996469;28;20030;-77
2023/04/16 01:45:00;;;;;;;10.05;6.38;;;;;;;7.55;100.00;98727.19;5015941;28;20036;-77
2023/04/16 01:47:25;;;;;;;9.68;5.82;;;;;;;7.51;100.00;98725.84;5006634;28;20053;-78
2023/04/16 01:49:51;;;;;;;10.85;6.15;;;;;;;7.56;100.00;98736.91;5004838;28;20037;-78
2023/04/16 01:52:16;;;;;;;12.93;5.75;;;;;;;7.59;100.00;98730.31;5001069;28;20056;-78
2023/04/16 01:54:41;;;;;;;9.45;5.68;;;;;;;7.55;100.00;98724.47;5004405;28;20040;-78
2023/04/16 01:57:07;;;;;;;9.25;5.43;;;;;;;7.56;100.00;98734.22;5001115;28;20060;-79
2023/04/16 01:59:32;;;;;;;9.68;5.30;;;;;;;7.38;100.00;98698.75;4994319;28;20551;-78
2023/04/16 02:02:09;;;;;;;9.73;6.38;;;;;;;7.41;100.00;98707.31;5013217;28;20029;-79
2023/04/16 02:04:39;;;;;;;9.15;5.57;;;;;;;7.50;100.00;98732.28;4996080;28;20022;-79
2023/04/16 02:07:05;;;;;;;8.18;5.63;;;;;;;7.52;100.00;98742.84;5012940;28;20125;-79
2023/04/16 02:09:33;;;;;;;9.40;6.07;;;;;;;7.59;100.00;98746.47;5013054;28;20487;-79
2023/04/16 02:11:59;;;;;;;9.10;6.07;;;;;;;7.48;100.00;98734.31;5002160;28;20128;-78
2023/04/16 02:14:24;;;;;;;11.45;6.55;;;;;;;7.42;100.00;98735.06;5010786;28;20164;-77
2023/04/16 02:16:50;;;;;;;9.35;5.90;;;;;;;7.48;100.00;98728.94;5012531;28;20164;-78
2023/04/16 02:19:15;;;;;;;10.88;6.55;;;;;;;7.44;100.00;98731.16;5039992;28;20017;-78
2023/04/16 02:21:41;;;;;;;10.85;6.68;;;;;;;7.50;100.00;98743.03;5018369;28;20026;-78
2023/04/16 02:24:06;;;;;;;9.90;6.00;;;;;;;7.43;100.00;98728.66;5021106;28;20093;-77
2023/04/16 02:26:32;;;;;;;10.00;6.50;;;;;;;7.45;100.00;98727.44;5014312;28;20049;-75
2023/04/16 02:28:57;;;;;;;11.30;6.60;;;;;;;7.50;100.00;98729.59;4995016;28;20053;-75
2023/04/16 02:31:22;;;;;;;10.20;6.20;;;;;;;7.57;100.00;98737.75;5013886;28;20436;-77
2023/04/16 02:33:48;;;;;;;10.57;6.03;;;;;;;7.52;100.00;98726.69;5008667;28;20180;-76
2023/04/16 02:36:13;;;;;;;12.93;6.35;;;;;;;7.50;100.00;98740.34;4993057;28;20526;-78
2023/04/16 02:38:38;;;;;;;10.00;5.68;;;;;;;7.41;100.00;98733.38;5003246;28;20033;-77
2023/04/16 02:41:04;;;;;;;10.90;6.20;;;;;;;7.45;100.00;98742.75;5012948;28;20057;-76
2023/04/16 02:43:29;;;;;;;10.90;6.55;;;;;;;7.33;100.00;98731.59;4996176;28;20022;-77
2023/04/16 02:45:54;;;;;;;11.30;6.90;;;;;;;7.40;100.00;98737.09;4997408;28;20036;-76
2023/04/16 02:48:19;;;;;;;11.98;6.38;;;;;;;7.53;100.00;98744.53;5004894;28;20054;-77
2023/04/16 02:50:45;;;;;;;12.00;6.80;;;;;;;7.53;100.00;98748.06;4996787;28;20022;-77
2023/04/16 02:53:10;;;;;;;11.27;7.28;;;;;;;7.54;100.00;98754.28;4993783;28;20018;-76
2023/04/16 02:55:35;;;;;;;13.68;6.40;;;;;;;7.49;100.00;98752.13;4997272;28;20021;-76
2023/04/16 02:58:01;;;;;;;11.77;6.78;;;;;;;7.56;100.00;98757.63;5017577;28;20120;-76
2023/04/16 03:00:26;;;;;;;10.27;5.90;;;;;;;7.49;100.00;98743.22;4999660;28;20038;-76
2023/04/16 03:02:51;;;;;;;11.57;7.13;;;;;;;7.28;100.00;98708.97;4993750;28;20025;-76
2023/04/16 03:05:17;;;;;;;12.13;7.25;;;;;;;7.49;100.00;98751.28;4994882;28;20523;-77
2023/04/16 03:07:42;;;;;;;13.63;6.90;;;;;;;7.45;100.00;98754.34;5011439;28;20022;-77
2023/04/16 03:10:08;;;;;;;11.20;6.85;;;;;;;7.25;100.00;98721.75;5021669;28;20024;-77
2023/04/16 03:12:34;;;;;;;14.15;7.53;;;;;;;7.43;100.00;98736.72;5009883;28;20057;-77
2023/04/16 03:15:00;;;;;;;13.38;7.65;;;;;;;7.38;100.00;98722.97;4994816;28;20041;-78
2023/04/16 03:17:25;;;;;;;12.77;6.80;;;;;;;7.53;100.00;98764.22;4997247;28;20034;-77
2023/04/16 03:19:50;;;;;;;13.43;7.70;;;;;;;7.47;100.00;98740.72;5010863;28;20041;-77
2023/04/16 03:22:16;;;;;;;12.27;7.20;;;;;;;7.58;100.00;98775.25;4994891;28;20503;-77
2023/04/16 03:24:41;;;;;;;15.32;8.38;;;;;;;7.52;100.00;98764.38;4993569;28;20129;-77
2023/04/16 03:27:06;;;;;;;13.50;8.52;;;;;;;7.50;100.00;98758.38;4987283;28;20022;-76
2023/04/16 03:29:32;;;;;;;14.40;7.95;;;;;;;7.43;100.00;98752.88;5010937;28;20038;-77
2023/04/16 03:31:57;;;;;;;13.68;8.57;;;;;;;7.44;100.00;98770.69;4995759;28;20022;-76
2023/04/16 03:34:22;;;;;;;13.35;7.93;;;;;;;7.50;100.00;98769.13;5011456;28;20022;-76
2023/04/16 03:36:48;;;;;;;15.27;8.70;;;;;;;7.53;100.00;98777.66;4995219;28;20053;-77
2023/04/16 03:39:13;;;;;;;16.00;9.05;;;;;;;7.44;100.00;98763.47;5001373;28;20022;-77
2023/04/16 03:41:38;;;;;;;17.50;8.57;;;;;;;7.52;100.00;98778.69;5013210;28;20037;-76
2023/04/16 03:44:03;;;;;;;14.68;8.98;;;;;;;7.49;100.00;98768.28;5004934;28;20507;-76
2023/04/16 03:46:29;;;;;;;14.18;8.30;;;;;;;7.51;100.00;98771.63;5008999;28;20033;-76
2023/04/16 03:48:54;;;;;;;16.98;8.90;;;;;;;7.52;100.00;98784.09;5012951;28;20072;-76
2023/04/16 03:51:20;;;;;;;16.92;8.60;;;;;;;7.40;100.00;98764.84;4993469;28;20052;-77
2023/04/16 03:53:45;;;;;;;13.70;8.13;;;;;;;7.44;100.00;98786.84;5008826;28;20029;-77
2023/04/16 03:56:10;;;;;;;14.90;8.07;;;;;;;7.39;100.00;98762.34;4995481;28;20474;-77
2023/04/16 03:58:35;;;;;;;16.60;9.02;;;;;;;7.27;100.00;98759.25;5010746;28;20036;-76
2023/04/16 04:01:01;;;;;;;15.30;8.57;;;;;;;7.30;100.00;98769.66;5018046;28;20032;-77
2023/04/16 04:03:26;;;;;;;15.85;8.60;;;;;;;7.29;100.00;98759.09;5001021;28;20108;-77
2023/04/16 04:05:51;;;;;;;16.65;9.18;;;;;;;7.38;100.00;98783.03;4993775;28;20022;-77
2023/04/16 04:08:16;;;;;;;18.13;9.48;;;;;;;7.41;100.00;98785.38;5001204;28;20091;-77
2023/04/16 04:10:42;;;;;;;16.00;8.80;;;;;;;7.50;100.00;98804.13;5027783;28;20034;-77
2023/04/16 04:13:07;;;;;;;16.63;9.40;;;;;;;7.38;100.00;98790.28;4988689;28;20023;-77
2023/04/16 04:15:32;;;;;;;16.55;8.82;;;;;;;7.47;100.00;98798.09;5014786;28;20033;-77
2023/04/16 04:17:58;;;;;;;14.80;8.52;;;;;;;7.32;100.00;98791.00;5001889;28;20030;-76
2023/04/16 04:20:23;;;;;;;21.33;9.10;;;;;;;7.41;100.00;98793.44;5014982;28;20022;-77
2023/04/16 04:22:49;;;;;;;16.88;9.10;;;;;;;7.46;100.00;98807.16;5015324;28;20030;-77
2023/04/16 04:25:15;;;;;;;19.88;9.00;;;;;;;7.49;100.00;98822.13;5010213;28;20389;-77
2023/04/16 04:27:41;;;;;;;17.33;9.05;;;;;;;7.42;100.00;98802.34;5017561;28;20026;-76
2023/04/16 04:30:06;;;;;;;19.45;9.23;;;;;;;7.48;100.00;98804.31;4999891;28;20030;-77
2023/04/16 04:32:32;;;;;;;15.35;8.25;;;;;;;7.35;100.00;98796.03;5002799;28;20044;-76
2023/04/16 04:35:00;;;;;;;16.92;9.32;;;;;;;7.56;100.00;98827.63;5014789;28;20041;-77
2023/04/16 04:37:25;;;;;;;15.98;8.63;;;;;;;7.48;100.00;98815.06;5013720;28;20075;-78
2023/04/16 04:39:50;;;;;;;15.52;8.50;;;;;;;7.55;100.00;98823.25;5011224;28;20493;-77
2023/04/16 04:42:17;;;;;;;13.73;8.57;;;;;;;7.64;100.00;98825.66;5012697;28;20490;-77
2023/04/16 04:44:43;;;;;;;12.98;8.20;;;;;;;7.55;100.00;98821.41;5013956;28;20379;-77
2023/04/16 04:47:08;;;;;;;14.63;8.10;;;;;;;7.53;100.00;98828.00;5016114;28;20037;-77
2023/04/16 04:49:33;;;;;;;14.93;8.05;;;;;;;7.51;100.00;98820.09;5021498;28;20025;-77
2023/04/16 04:52:00;;;;;;;15.40;7.85;;;;;;;7.54;100.00;98829.66;4990844;28;20025;-77
2023/04/16 04:54:25;;;;;;;13.73;8.18;;;;;;;7.43;100.00;98831.75;4996567;28;20031;-77
2023/04/16 04:56:51;;;;;;;13.20;7.50;;;;;;;7.38;100.00;98820.69;4992694;28;20029;-77
2023/04/16 04:59:16;;;;;;;14.10;7.82;;;;;;;7.46;100.00;98841.31;5013340;28;20038;-77
2023/04/16 05:01:42;;;;;;;15.00;8.18;;;;;;;7.40;100.00;98815.16;4991494;28;20498;-77
2023/04/16 05:04:07;;;;;;;13.15;8.07;;;;;;;7.33;100.00;98806.13;4994861;28;20018;-77
2023/04/16 05:06:32;;;;;;;13.65;8.60;;;;;;;7.44;100.00;98825.38;5015334;28;20025;-78
2023/04/16 05:08:58;;;;;;;15.25;8.70;;;;;;;7.56;100.00;98849.16;5022217;28;20395;-77
2023/04/16 05:11:23;;;;;;;13.55;8.25;;;;;;;7.49;100.00;98843.66;5028091;28;20117;-77
2023/04/16 05:13:48;;;;;;;16.17;8.65;;;;;;;7.29;100.00;98820.97;4995811;28;20049;-77
2023/04/16 05:16:14;;;;;;;16.88;9.30;;;;;;;7.46;100.00;98844.84;4997938;28;20021;-77
2023/04/16 05:18:39;;;;;;;16.40;8.85;;;;;;;7.53;100.00;98858.44;4995481;28;20116;-77
2023/04/16 05:21:04;;;;;;;15.65;9.15;;;;;;;7.41;100.00;98827.56;4996519;28;20966;-77
2023/04/16 05:23:30;;;;;;;21.77;8.75;;;;;;;7.56;100.00;98844.59;5011259;28;20134;-76
2023/04/16 05:25:55;;;;;;;16.73;9.82;;;;;;;7.63;100.00;98860.88;4983318;28;20535;-77
2023/04/16 05:28:20;;;;;;;16.50;8.82;;;;;;;7.63;100.00;98856.31;4996415;28;20195;-77
2023/04/16 05:30:46;;;;;;;18.88;9.90;;;;;;;7.67;100.00;98863.00;5011765;28;20032;-77
2023/04/16 05:33:11;;;;;;;20.70;10.40;;;;;;;7.31;100.00;98811.72;4995628;28;20061;-77
2023/04/16 05:35:36;;;;;;;17.42;9.85;;;;;;;7.65;100.00;98870.44;4995306;28;20026;-78
2023/04/16 05:38:03;;;;;;;18.88;10.95;;;;;;;7.72;100.00;98889.38;5010281;28;20065;-77
2023/04/16 05:40:28;;;;;;;18.75;10.38;;;;;;;7.75;100.00;98882.78;5005729;28;20018;-76
2023/04/16 05:42:54;;;;;;;23.00;11.13;;;;;;;7.58;100.00;98847.13;4994940;28;20033;-80
2023/04/16 05:45:19;;;;;;;21.30;10.25;;;;;;;7.76;100.00;98881.78;5015626;28;20581;-82
2023/04/16 05:47:44;;;;;;;21.73;11.20;;;;;;;7.83;100.00;98885.41;4989944;28;20044;-88
2023/04/16 05:50:11;;;;;;;22.60;11.32;;;;;;;7.69;100.00;98857.44;5001265;28;20030;-90
2023/04/16 05:52:37;;;;;;;19.65;11.23;;;;;;;7.67;100.00;98841.44;4999706;28;20026;-88
2023/04/16 05:55:04;;;;;;;21.23;11.18;;;;;;;7.88;100.00;98875.75;5002395;28;20029;-88
2023/04/16 05:57:30;;;;;;;21.48;11.10;;;;;;;7.99;100.00;98879.00;5015015;28;20101;-89
2023/04/16 05:59:55;;;;;;;22.13;11.73;;;;;;;7.61;100.00;98823.34;4995789;28;20104;-83
2023/04/16 06:02:20;;;;;;;20.52;11.85;;;;;;;7.92;100.00;98873.53;5013162;28;20022;-82
2023/04/16 06:04:46;;;;;;;20.58;11.90;;;;;;;7.97;100.00;98873.00;5012707;28;20034;-84
2023/04/16 06:07:11;;;;;;;21.10;12.10;;;;;;;8.02;100.00;98894.81;4997444;28;20068;-80
2023/04/16 06:09:36;;;;;;;18.23;11.23;;;;;;;8.04;100.00;98890.94;5010959;28;20034;-82
2023/04/16 06:12:02;;;;;;;22.40;11.93;;;;;;;8.07;100.00;98869.00;5000325;28;20018;-79
2023/04/16 06:14:27;;;;;;;23.00;11.63;;;;;;;8.13;100.00;98883.59;5018392;28;20041;-82
2023/04/16 06:16:52;;;;;;;20.90;11.95;;;;;;;7.83;100.00;98847.69;4999528;28;20027;-82
2023/04/16 06:19:18;;;;;;;19.38;11.60;;;;;;;8.17;100.00;98875.94;4991482;28;20022;-79
2023/04/16 06:21:43;;;;;;;21.15;10.77;;;;;;;8.23;100.00;98889.53;4996288;28;20022;-81
2023/04/16 06:24:08;;;;;;;19.90;10.85;;;;;;;8.29;100.00;98869.06;4992808;28;20103;-81
2023/04/16 06:26:34;;;;;;;20.40;11.52;;;;;;;8.41;100.00;98891.03;5008611;28;20040;-77
2023/04/16 06:28:59;;;;;;;19.45;11.40;;;;;;;8.48;100.00;98891.94;4998504;28;20065;-80
2023/04/16 06:31:25;;;;;;;20.55;11.50;;;;;;;8.61;100.00;98891.28;4992629;28;20467;-72
2023/04/16 06:33:50;;;;;;;22.52;11.65;;;;;;;8.49;100.00;98866.69;5010703;28;20029;-76
2023/04/16 06:36:15;;;;;;;19.83;11.63;;;;;;;8.34;100.00;98837.00;5010510;28;20392;-76
2023/04/16 06:38:41;;;;;;;17.33;10.35;;;;;;;8.57;100.00;98874.66;5009885;28;20109;-76
2023/04/16 06:41:06;;;;;;;20.13;10.77;;;;;;;8.48;100.00;98862.28;5011717;28;20400;-77
2023/04/16 06:43:32;;;;;;;20.42;11.20;;;;;;;8.53;100.00;98879.56;5007323;28;20030;-76
2023/04/16 06:45:58;;;;;;;19.92;11.48;;;;;;;8.53;100.00;98874.19;5004880;28;20041;-74
2023/04/16 06:48:23;;;;;;;18.08;10.57;;;;;;;8.65;100.00;98888.03;5006830;28;20381;-72
2023/04/16 06:50:48;;;;;;;18.15;11.00;;;;;;;8.78;100.00;98876.56;5021953;28;20156;-77
2023/04/16 06:53:14;;;;;;;18.60;10.80;;;;;;;8.91;100.00;98892.06;5014125;28;20028;-79
2023/04/16 06:55:39;;;;;;;18.15;11.10;;;;;;;9.02;100.00;98888.03;4995226;28;20034;-81
2023/04/16 06:58:05;;;;;;;19.15;10.52;;;;;;;9.05;100.00;98872.28;5010110;28;20052;-77
2023/04/16 07:00:30;;;;;;;21.55;11.35;;;;;;;9.40;100.00;98894.84;5011395;28;20487;-78
2023/04/16 07:02:56;;;;;;;18.30;10.88;;;;;;;9.51;100.00;98890.81;5011558;28;20034;-78
2023/04/16 07:05:21;;;;;;;23.90;11.32;;;;;;;9.35;100.00;98854.09;4993425;28;20045;-77
2023/04/16 07:07:46;;;;;;;21.88;10.18;;;;;;;9.31;100.00;98877.13;4989881;28;20026;-79
2023/04/16 07:10:11;;;;;;;15.48;9.38;;;;;;;9.26;100.00;98874.16;5016886;28;20471;-79
2023/04/16 07:12:37;;;;;;;17.90;10.98;;;;;;;9.20;100.00;98891.97;5008843;28;20025;-79
2023/04/16 07:15:03;;;;;;;16.63;10.07;;;;;;;9.35;100.00;98893.75;4997298;28;20120;-74
2023/04/16 07:17:28;;;;;;;18.27;10.75;;;;;;;9.37;100.00;98897.09;5007065;28;20025;-74
2023/04/16 07:19:54;;;;;;;17.95;10.88;;;;;;;9.29;100.00;98886.44;5014006;28;20545;-73
2023/04/16 07:22:19;;;;;;;19.95;10.32;;;;;;;9.31;100.00;98892.47;5006184;28;20024;-72
2023/04/16 07:24:44;;;;;;;17.02;10.32;;;;;;;9.26;100.00;98887.66;5000459;28;20484;-72
2023/04/16 07:27:10;;;;;;;15.98;9.50;;;;;;;9.44;100.00;98898.84;5006932;28;20049;-72
2023/04/16 07:29:35;;;;;;;21.30;11.38;;;;;;;9.36;100.00;98879.25;5001436;28;20038;-73
2023/04/16 07:32:01;;;;;;;18.00;10.48;;;;;;;9.50;100.00;98881.00;4996224;28;20018;-72
2023/04/16 07:34:26;;;;;;;19.80;10.30;;;;;;;9.38;100.00;98899.63;5009387;28;20030;-73
2023/04/16 07:36:51;;;;;;;17.58;10.13;;;;;;;9.36;100.00;98906.25;4990928;28;20049;-76
2023/04/16 07:39:16;;;;;;;17.70;10.35;;;;;;;9.27;100.00;98902.81;5025656;28;20053;-78
2023/04/16 07:41:42;;;;;;;16.67;9.65;;;;;;;9.21;100.00;98885.53;4993556;28;20029;-78
2023/04/16 07:44:08;;;;;;;17.98;9.93;;;;;;;9.26;100.00;98898.44;5014646;28;20029;-78
2023/04/16 07:46:33;;;;;;;16.95;9.70;;;;;;;9.37;100.00;98914.13;5013349;28;20026;-78
2023/04/16 07:48:59;;;;;;;16.15;9.18;;;;;;;9.49;100.00;98919.88;5009991;28;20057;-76
2023/04/16 07:51:25;;;;;;;18.08;10.13;;;;;;;9.55;100.00;98899.34;4997990;28;20048;-79
2023/04/16 07:53:50;;;;;;;17.50;9.20;;;;;;;9.72;100.00;98895.34;5018350;28;20028;-75
2023/04/16 07:56:15;;;;;;;16.00;9.82;;;;;;;9.87;100.00;98893.38;5013400;28;20113;-77
2023/04/16 07:58:40;;;;;;;14.85;9.30;;;;;;;10.15;100.00;98906.03;5000341;28;20026;-77
2023/04/16 08:01:06;;;;;;;16.73;9.10;;;;;;;10.40;100.00;98909.16;5022872;28;20057;-78
2023/04/16 08:03:31;;;;;;;15.85;9.27;;;;;;;10.60;100.00;98903.00;4997100;28;20029;-78
2023/04/16 08:05:57;;;;;;;15.00;8.88;;;;;;;10.75;100.00;98907.22;5003277;28;20054;-77
2023/04/16 08:08:22;;;;;;;13.98;8.63;;;;;;;10.68;100.00;98898.22;5009348;28;20080;-77
2023/04/16 08:10:48;;;;;;;14.95;8.40;;;;;;;10.55;100.00;98900.88;5004563;28;20454;-75
2023/04/16 08:13:13;;;;;;;14.77;8.88;;;;;;;10.30;100.00;98887.88;5007991;28;20029;-76
2023/04/16 08:15:38;;;;;;;15.40;8.73;;;;;;;10.22;100.00;98904.22;4998094;28;20080;-79
2023/04/16 08:18:11;;;;;;;15.85;9.00;;;;;;;10.10;100.00;98908.50;5005310;28;20112;-81
2023/04/16 08:20:37;;;;;;;14.35;8.98;;;;;;;10.15;100.00;98921.44;5005504;28;20033;-77
2023/04/16 08:23:02;;;;;;;13.65;8.63;;;;;;;10.20;100.00;98930.63;5013898;28;20018;-77
2023/04/16 08:25:27;;;;;;;13.55;8.38;;;;;;;10.25;100.00;98943.56;5018252;28;20113;-78
2023/04/16 08:27:53;;;;;;;17.90;8.20;;;;;;;10.43;100.00;98929.56;4994889;28;20022;-80
2023/04/16 08:30:18;;;;;;;14.13;8.48;;;;;;;10.62;100.00;98930.69;4997097;28;20476;-80
2023/04/16 08:32:43;;;;;;;13.80;8.18;;;;;;;10.74;100.00;98910.97;5018562;28;20021;-79
2023/04/16 08:35:09;;;;;;;14.00;8.13;;;;;;;10.99;100.00;98940.22;4989471;28;20033;-80
2023/04/16 08:37:34;;;;;;;13.50;8.13;;;;;;;11.18;100.00;98942.13;5000367;28;20111;-77
2023/04/16 08:40:01;;;;;;;12.57;7.75;;;;;;;11.09;100.00;98940.66;4999443;28;20030;-76
2023/04/16 08:42:39;;;;;;;12.32;7.50;;;;;;;11.19;100.00;98946.53;5018165;28;20581;-79
2023/04/16 08:45:13;;;;;;;10.63;7.37;;;;;;;11.05;100.00;98927.72;5012885;28;20047;-75
2023/04/16 08:47:40;;;;;;;12.70;8.20;;;;;;;10.88;100.00;98916.44;4985480;28;20285;-77
2023/04/16 08:50:10;;;;;;;13.90;8.02;;;;;;;10.88;100.00;98947.03;4998486;28;20037;-71
2023/04/16 08:52:41;;;;;;;14.70;8.23;;;;;;;10.80;100.00;98941.81;4990057;28;20026;-71
2023/04/16 08:55:11;;;;;;;10.85;7.28;;;;;;;10.74;100.00;98948.88;5011292;28;20029;-71
2023/04/16 08:57:57;;;;;;;12.85;8.02;;;;;;;10.91;100.00;98964.75;5009019;28;20026;-72
2023/04/16 09:00:22;;;;;;;12.00;7.20;;;;;;;10.74;100.00;98962.41;5000405;28;20034;-71
2023/04/16 09:02:49;;;;;;;13.13;7.85;;;;;;;10.66;100.00;98965.28;5012695;28;20056;-72
2023/04/16 09:05:16;;;;;;;13.65;8.38;;;;;;;10.69;100.00;98970.28;5010863;28;20451;-71
2023/04/16 09:07:43;;;;;;;14.40;8.85;;;;;;;10.72;100.00;98961.75;5012313;28;20025;-80
2023/04/16 09:10:09;;;;;;;13.25;8.02;;;;;;;10.58;100.00;98954.59;4994025;28;20392;-70
2023/04/16 09:12:35;;;;;;;14.05;7.97;;;;;;;10.54;100.00;98980.38;5012634;28;20036;-70
2023/04/16 09:15:01;;;;;;;13.65;8.20;;;;;;;10.45;100.00;98981.56;5013826;28;20030;-71
2023/04/16 09:17:27;;;;;;;14.40;8.18;;;;;;;10.18;100.00;98970.53;5001801;28;20036;-70
2023/04/16 09:19:53;;;;;;;14.75;7.97;;;;;;;10.16;100.00;98991.50;5007593;28;20029;-71
2023/04/16 09:22:19;;;;;;;12.43;8.02;;;;;;;9.93;100.00;98974.69;5014891;28;20484;-70
2023/04/16 09:24:44;;;;;;;14.30;7.97;;;;;;;9.78;100.00;98988.28;5019011;28;20048;-71
2023/04/16 09:27:11;;;;;;;12.73;7.80;;;;;;;9.76;100.00;98991.19;5010501;28;20025;-70
2023/04/16 09:29:38;;;;;;;13.10;7.93;;;;;;;9.76;100.00;98998.44;5003233;28;20409;-70
2023/04/16 09:32:06;;;;;;;13.20;8.23;;;;;;;9.61;100.00;98993.09;5010289;28;20057;-71
2023/04/16 09:34:32;;;;;;;16.52;9.40;;;;;;;9.57;100.00;99006.16;5008203;28;20052;-71
2023/04/16 09:37:16;;;;;;;16.35;8.52;;;;;;;9.64;100.00;99007.06;5009089;28;20053;-70
2023/04/16 09:39:43;;;;;;;19.42;8.80;;;;;;;9.83;100.00;99008.28;5008484;28;20022;-71
2023/04/16 09:42:08;;;;;;;14.38;8.82;;;;;;;9.90;100.00;99004.81;5007516;28;20026;-71
2023/04/16 09:44:38;;;;;;;18.58;9.25;;;;;;;9.97;100.00;98990.31;5019012;28;20080;-70
2023/04/16 09:47:07;;;;;;;;;;;;;;;10.35;100.00;99000.00;5008383;28;20034;-70
2023/04/16 09:49:40;;;;;;;14.98;8.07;;;;;;;10.36;100.00;99001.69;5011083;28;19920;-70
2023/04/16 09:52:13;;;;;;;18.27;8.90;;;;;;;10.50;100.00;99000.72;5019391;28;20033;-70
2023/04/16 09:54:41;;;;;;;16.35;8.82;;;;;;;10.34;100.00;98999.16;5011274;28;20029;-71
2023/04/16 09:57:07;;;;;;;15.00;9.40;;;;;;;10.37;100.00;99000.66;5010080;28;20539;-70
2023/04/16 09:59:34;;;;;;;16.08;8.93;;;;;;;10.40;100.00;99011.94;5010058;28;20060;-71
2023/04/16 10:02:00;;;;;;;17.80;9.80;;;;;;;10.35;100.00;99000.00;5009239;28;20040;-71
2023/04/16 10:04:26;;;;;;;16.80;9.18;;;;;;;10.28;100.00;99005.38;5010381;28;20101;-70
2023/04/16 10:07:05;;;;;;;16.55;9.15;;;;;;;10.36;100.00;99015.22;5002909;28;20084;-71
2023/04/16 10:09:32;;;;;;;15.90;8.95;;;;;;;10.36;100.00;99021.44;4987589;28;20109;-71
2023/04/16 10:11:57;;;;;;;17.83;9.13;;;;;;;10.33;100.00;99004.78;5007799;28;20040;-71
2023/04/16 10:14:23;;;;;;;17.55;9.43;;;;;;;10.22;100.00;99004.25;5010247;28;20101;-71
2023/04/16 10:16:49;;;;;;;18.83;10.07;;;;;;;10.09;100.00;98991.47;5009262;28;20479;-70
2023/04/16 10:19:15;;;;;;;17.63;9.75;;;;;;;10.17;100.00;99025.66;4989414;28;20030;-71
2023/04/16 10:21:40;;;;;;;18.48;9.82;;;;;;;10.19;100.00;99031.69;5004362;28;20022;-71
2023/04/16 10:24:07;;;;;;;17.83;9.95;;;;;;;10.20;100.00;99013.59;5007074;28;20041;-71
2023/04/16 10:26:34;;;;;;;19.30;10.05;;;;;;;10.20;100.00;99027.97;5011326;28;20056;-70
2023/04/16 10:28:59;;;;;;;18.35;10.18;;;;;;;10.09;100.00;99006.88;5012167;28;20034;-70
2023/04/16 10:31:26;;;;;;;18.83;9.85;;;;;;;10.12;100.00;99024.56;5005722;28;20029;-70
2023/04/16 10:33:51;;;;;;;16.17;8.85;;;;;;;9.98;100.00;99026.28;5010257;28;20147;-70
2023/04/16 10:36:23;;;;;;;16.08;9.02;;;;;;;9.87;100.00;99033.88;5011819;28;20025;-70
2023/04/16 10:38:51;;;;;;;19.13;9.65;;;;;;;9.66;100.00;99023.06;5010900;28;20020;-70
2023/04/16 10:41:19;;;;;;;18.98;9.80;;;;;;;9.66;100.00;99036.59;5006955;28;20375;-70
2023/04/16 10:43:46;;;;;;;19.52;9.48;;;;;;;9.71;100.00;99038.72;4996208;28;20113;-70
2023/04/16 10:46:48;;;;;;;21.25;10.18;;;;;;;9.78;100.00;99040.47;5009525;28;20084;-71
2023/04/16 10:49:23;;;;;;;17.55;9.60;;;;;;;9.70;100.00;99043.28;4977322;28;20025;-70
2023/04/16 10:52:06;;;;;;;17.00;9.10;;;;;;;9.65;100.00;99043.84;5005935;28;20034;-71
2023/04/16 10:54:34;;;;;;;17.45;9.15;;;;;;;9.64;100.00;99039.50;4989381;28;20029;-71
2023/04/16 10:57:05;;;;;;;15.07;8.52;;;;;;;9.63;100.00;99031.56;5011783;28;20033;-71
2023/04/16 10:59:36;;;;;;;18.00;9.32;;;;;;;9.85;100.00;99038.66;5002776;28;20041;-71
2023/04/16 11:02:08;;;;;;;20.05;8.85;;;;;;;9.77;100.00;99025.28;5006001;28;20030;-71
2023/04/16 11:04:38;;;;;;;15.57;8.82;;;;;;;9.79;100.00;99034.00;4991819;28;20116;-71
2023/04/16 11:07:12;;;;;;;16.65;9.00;;;;;;;9.91;100.00;99038.94;5010949;28;20029;-71
2023/04/16 11:09:58;;;;;;;18.35;8.57;;;;;;;9.79;100.00;99039.41;5005287;28;20041;-71
2023/04/16 11:12:40;;;;;;;16.52;8.75;;;;;;;9.80;100.00;99035.72;5010717;28;20037;-71
2023/04/16 11:15:10;;;;;;;15.45;8.75;;;;;;;9.64;100.00;99028.69;5001246;28;20029;-70
2023/04/16 11:17:47;;;;;;;14.77;7.63;;;;;;;9.78;100.00;99040.47;4986098;28;20506;-70